PHX weather

Phoenix Sky Harbor International Airport
Phoenix, Arizona, United States

Public forecast

Using degrees Fahrenheit for public forecast. Weather courtesy of forecast.io.

METAR (pilot weather report)

Retrieved 2018/08/16 04:51 UTC (13 minutes ago):

KPHX 160451Z 19003KT 10SM FEW170 BKN250 33/17 A2987 RMK AO2 SLP093 T03280167

TAF (pilot weather forecast)

Forecast is more than 12 hours old.

Retrieved 2018/08/15 00:24 UTC (1 day ago):

TAF KPHX 152322Z 1600/1706 25006KT P6SM FEW070 SCT150 BKN250 FM160700 14006KT P6SM SCT070 BKN150 FM162000 26006KT P6SM BKN070 BKN150